Time;durP1;ratioP1;P1;durP2;ratioP2;P2;SDS_P1;SDS_P2;PMS_P1;PMS_P2;Temp;Humidity;BMP_temperature;BMP_pressure;BME280_temperature;BME280_humidity;BME280_pressure;Samples;Min_cycle;Max_cycle;Signal;HPM_P1;HPM_P2
2021/10/16 00:01:01;;;;;;;5.63;1.07;;;;;;;7.48;64.40;100473.09;6311518;28;20263;-72
2021/10/16 00:04:06;;;;;;;1.80;1.17;;;;;;;7.46;63.76;100472.47;6311082;28;20383;-72
2021/10/16 00:07:12;;;;;;;4.07;1.10;;;;;;;7.51;63.29;100478.97;6311122;28;20250;-72
2021/10/16 00:10:18;;;;;;;13.45;1.33;;;;;;;7.48;63.39;100482.09;6312202;28;20321;-72
2021/10/16 00:13:22;;;;;;;8.50;1.30;;;;;;;7.28;65.08;100477.66;6312440;28;20221;-72
2021/10/16 00:16:26;;;;;;;1.00;0.90;;;;;;;7.39;64.11;100483.34;6312016;28;20183;-72
2021/10/16 00:19:31;;;;;;;8.07;1.08;;;;;;;7.45;63.52;100477.06;6310978;28;20211;-72
2021/10/16 00:22:35;;;;;;;1.10;0.93;;;;;;;7.46;63.31;100489.59;6312195;28;20183;-71
2021/10/16 00:25:41;;;;;;;1.10;1.10;;;;;;;7.42;63.39;100496.47;6310691;28;20187;-72
2021/10/16 00:28:45;;;;;;;1.27;1.10;;;;;;;7.34;63.54;100499.41;6314673;28;20250;-71
2021/10/16 00:31:50;;;;;;;1.00;1.00;;;;;;;7.27;63.37;100484.94;6314796;28;20230;-71
2021/10/16 00:34:54;;;;;;;3.33;1.00;;;;;;;7.26;64.48;100499.56;6316840;28;20191;-72
2021/10/16 00:37:58;;;;;;;2.23;1.00;;;;;;;7.30;64.26;100497.25;6316755;28;20189;-72
2021/10/16 00:41:04;;;;;;;2.00;1.50;;;;;;;7.23;65.09;100493.69;6316305;28;20253;-72
2021/10/16 00:44:13;;;;;;;3.53;1.37;;;;;;;7.32;63.30;100487.03;6315877;28;20200;-73
2021/10/16 00:47:18;;;;;;;8.27;1.00;;;;;;;7.34;62.55;100496.69;6315455;28;20505;-72
2021/10/16 00:50:24;;;;;;;0.90;0.90;;;;;;;7.32;63.76;100487.88;6316657;28;20258;-72
2021/10/16 00:53:28;;;;;;;3.13;1.20;;;;;;;7.14;65.25;100484.91;6315919;28;20187;-73
2021/10/16 00:56:36;;;;;;;1.13;1.03;;;;;;;7.20;64.31;100488.69;6315154;28;20380;-72
2021/10/16 00:59:40;;;;;;;2.20;0.93;;;;;;;7.20;63.44;100494.94;6314949;28;20510;-72
2021/10/16 01:02:44;;;;;;;0.93;0.93;;;;;;;7.04;62.74;100481.72;6290660;28;20278;-72
2021/10/16 01:05:51;;;;;;;1.10;1.10;;;;;;;7.17;62.72;100484.50;6314763;28;20200;-72
2021/10/16 01:08:56;;;;;;;3.90;0.90;;;;;;;7.06;64.05;100482.34;6316039;28;20424;-72
2021/10/16 01:12:03;;;;;;;1.60;0.73;;;;;;;7.11;63.51;100479.91;6316303;28;20184;-73
2021/10/16 01:15:10;;;;;;;1.03;1.03;;;;;;;7.10;63.39;100478.22;6297306;28;20514;-72
2021/10/16 01:18:16;;;;;;;0.80;0.80;;;;;;;7.03;65.21;100487.38;6297563;28;20373;-72
2021/10/16 01:21:23;;;;;;;0.90;0.90;;;;;;;7.00;65.69;100483.19;6296977;28;20226;-72
2021/10/16 01:24:27;;;;;;;2.03;1.10;;;;;;;6.92;66.37;100486.06;6296870;28;20221;-72
2021/10/16 01:27:32;;;;;;;1.00;1.00;;;;;;;6.82;66.65;100491.03;6314878;28;20191;-72
2021/10/16 01:30:37;;;;;;;1.10;1.10;;;;;;;6.91;66.31;100473.53;6314698;28;20229;-72
2021/10/16 01:33:41;;;;;;;0.90;0.90;;;;;;;6.98;65.50;100481.72;6314351;28;20199;-71
2021/10/16 01:36:49;;;;;;;2.53;1.00;;;;;;;6.87;66.18;100483.13;6314254;28;20482;-72
2021/10/16 01:39:57;;;;;;;1.07;0.90;;;;;;;6.81;66.85;100483.91;6311937;28;20234;-73
2021/10/16 01:43:03;;;;;;;1.20;1.10;;;;;;;6.81;67.33;100483.91;6297086;28;20203;-72
2021/10/16 01:46:10;;;;;;;0.97;0.97;;;;;;;6.72;68.22;100479.72;6296743;28;20259;-71
2021/10/16 01:49:16;;;;;;;1.10;1.00;;;;;;;6.74;67.80;100488.47;6313951;28;20210;-72
2021/10/16 01:52:23;;;;;;;0.90;0.90;;;;;;;6.65;68.24;100495.94;6297246;28;20312;-72
2021/10/16 01:55:31;;;;;;;1.67;0.90;;;;;;;6.73;66.96;100486.78;6313005;28;20203;-73
2021/10/16 01:58:35;;;;;;;2.63;0.90;;;;;;;6.69;66.23;100486.38;6297053;28;20207;-73
2021/10/16 02:01:47;;;;;;;1.00;1.00;;;;;;;6.67;66.16;100483.03;6296319;28;20281;-73
2021/10/16 02:04:59;;;;;;;0.83;0.83;;;;;;;6.58;68.22;100488.78;6297183;28;20269;-72
2021/10/16 02:08:05;;;;;;;1.10;1.10;;;;;;;6.70;66.82;100493.44;6296260;28;20491;-70
2021/10/16 02:11:11;;;;;;;0.90;0.90;;;;;;;6.88;62.25;100498.38;6313125;28;20245;-71
2021/10/16 02:14:25;;;;;;;0.80;0.80;;;;;;;6.90;62.19;100505.25;6296534;28;20206;-71
2021/10/16 02:17:34;;;;;;;0.73;0.73;;;;;;;6.73;63.27;100486.78;6314330;28;20265;-72
2021/10/16 02:20:39;;;;;;;1.20;1.20;;;;;;;6.78;62.51;100478.88;6296172;28;20256;-72
2021/10/16 02:23:45;;;;;;;0.90;0.90;;;;;;;6.50;65.01;100480.81;6296475;28;20278;-72
2021/10/16 02:26:52;;;;;;;1.60;0.80;;;;;;;6.39;64.81;100490.38;6312947;28;20269;-72
2021/10/16 02:30:00;;;;;;;3.60;1.07;;;;;;;6.28;66.04;100486.31;6295605;28;20214;-72
2021/10/16 02:33:04;;;;;;;1.60;1.03;;;;;;;6.27;67.70;100492.78;6314248;28;20254;-71
2021/10/16 02:36:10;;;;;;;1.00;1.00;;;;;;;6.31;65.16;100498.66;6296438;28;20199;-72
2021/10/16 02:39:16;;;;;;;2.90;0.93;;;;;;;6.18;67.44;100499.38;6295354;28;20202;-72
2021/10/16 02:42:20;;;;;;;0.87;0.87;;;;;;;6.07;69.06;100491.78;6295045;28;20491;-72
2021/10/16 02:45:26;;;;;;;0.97;0.97;;;;;;;6.03;68.67;100495.09;6295524;28;20241;-72
2021/10/16 02:48:30;;;;;;;0.87;0.87;;;;;;;5.92;68.65;100507.28;6311399;28;20289;-72
2021/10/16 02:51:35;;;;;;;1.27;0.90;;;;;;;5.87;68.04;100496.19;6313110;28;20258;-72
2021/10/16 02:54:41;;;;;;;1.10;1.10;;;;;;;5.86;67.89;100489.09;6295244;28;20203;-72
2021/10/16 02:57:46;;;;;;;3.67;0.80;;;;;;;5.88;68.43;100481.59;6311355;28;20239;-72
2021/10/16 03:00:50;;;;;;;0.90;0.90;;;;;;;5.84;68.16;100485.72;6313215;28;20261;-72
2021/10/16 03:03:54;;;;;;;0.80;0.80;;;;;;;5.89;68.94;100494.13;6312335;28;20416;-72
2021/10/16 03:06:59;;;;;;;1.00;1.00;;;;;;;5.83;69.01;100494.06;6294510;28;20278;-72
2021/10/16 03:10:11;;;;;;;0.93;0.93;;;;;;;5.73;69.42;100477.31;6295142;28;20205;-72
2021/10/16 03:13:16;;;;;;;1.90;0.90;;;;;;;5.75;69.51;100476.06;6311940;28;20270;-72
2021/10/16 03:16:23;;;;;;;0.80;0.80;;;;;;;5.78;69.16;100474.84;6294530;28;20217;-72
2021/10/16 03:19:28;;;;;;;0.83;0.83;;;;;;;5.87;69.71;100479.97;6311235;28;20202;-72
2021/10/16 03:22:39;;;;;;;2.03;0.90;;;;;;;5.74;69.60;100479.81;6295010;28;20226;-71
2021/10/16 03:25:45;;;;;;;1.03;1.03;;;;;;;5.63;69.83;100477.59;6294710;28;20214;-72
2021/10/16 03:28:49;;;;;;;1.00;1.00;;;;;;;5.72;69.45;100487.28;6294328;28;20207;-72
2021/10/16 03:31:53;;;;;;;1.00;0.90;;;;;;;5.80;68.76;100486.31;6311553;28;20257;-72
2021/10/16 03:34:58;;;;;;;1.00;1.00;;;;;;;5.75;68.08;100483.34;6294865;28;20202;-71
2021/10/16 03:38:02;;;;;;;3.50;1.23;;;;;;;5.82;67.74;100487.78;6311506;28;20537;-72
2021/10/16 03:41:09;;;;;;;0.90;0.90;;;;;;;5.90;67.32;100484.13;6293790;28;20241;-72
2021/10/16 03:44:13;;;;;;;2.10;0.93;;;;;;;5.82;67.75;100482.38;6312705;28;20186;-72
2021/10/16 03:47:19;;;;;;;0.87;0.87;;;;;;;5.69;69.03;100501.19;6310473;28;20286;-71
2021/10/16 03:50:24;;;;;;;0.93;0.93;;;;;;;5.66;68.81;100498.88;6293614;28;20216;-71
2021/10/16 03:53:28;;;;;;;1.70;1.10;;;;;;;5.66;68.85;100493.47;6293513;28;20366;-71
2021/10/16 03:56:34;;;;;;;0.90;0.90;;;;;;;5.59;69.05;100492.56;6310951;28;20202;-72
2021/10/16 03:59:42;;;;;;;0.90;0.90;;;;;;;5.53;69.55;100490.63;6310093;28;20203;-72
2021/10/16 04:02:49;;;;;;;2.20;1.07;;;;;;;5.63;68.42;100473.03;6293223;28;20255;-72
2021/10/16 04:05:53;;;;;;;1.13;1.00;;;;;;;5.86;67.17;100475.56;6310682;28;20233;-71
2021/10/16 04:08:58;;;;;;;1.27;1.27;;;;;;;5.80;66.65;100468.22;6310525;28;20202;-72
2021/10/16 04:12:04;;;;;;;1.10;1.10;;;;;;;5.82;66.58;100471.56;6294475;28;20213;-72
2021/10/16 04:15:10;;;;;;;1.00;1.00;;;;;;;5.82;67.93;100471.56;6294116;28;20209;-72
2021/10/16 04:18:18;;;;;;;4.00;1.10;;;;;;;5.85;66.73;100463.06;6312005;28;20193;-72
2021/10/16 04:21:22;;;;;;;4.70;0.90;;;;;;;5.89;66.79;100458.09;6293796;28;20221;-72
2021/10/16 04:24:31;;;;;;;1.10;1.10;;;;;;;5.66;68.36;100455.56;6293388;28;20207;-72
2021/10/16 04:27:37;;;;;;;2.20;1.00;;;;;;;5.58;70.57;100463.81;6293227;28;20243;-71
2021/10/16 04:30:53;;;;;;;3.40;1.10;;;;;;;5.47;69.75;100472.47;6310366;28;20554;-72
2021/10/16 04:33:57;;;;;;;1.03;1.03;;;;;;;5.66;69.61;100466.41;6311664;28;20197;-72
2021/10/16 04:37:02;;;;;;;0.87;0.87;;;;;;;5.51;70.53;100462.94;6310671;28;20186;-72
2021/10/16 04:40:12;;;;;;;1.10;1.10;;;;;;;5.67;71.08;100462.69;6293181;28;20501;-71
2021/10/16 04:43:19;;;;;;;1.80;1.33;;;;;;;5.57;70.34;100467.56;6293230;28;20442;-72
2021/10/16 04:46:25;;;;;;;4.13;1.40;;;;;;;5.52;71.36;100461.91;6292782;28;20207;-71
2021/10/16 04:49:37;;;;;;;1.63;1.17;;;;;;;5.55;70.77;100458.78;6292973;28;20202;-72
2021/10/16 04:52:44;;;;;;;1.20;1.20;;;;;;;5.61;71.33;100464.28;6293212;28;20211;-72
2021/10/16 04:55:56;;;;;;;0.90;0.90;;;;;;;5.45;71.76;100453.72;6292680;28;20202;-72
2021/10/16 04:59:02;;;;;;;1.80;1.00;;;;;;;5.54;72.15;100451.72;6293645;28;20201;-72
2021/10/16 05:02:09;;;;;;;1.90;1.10;;;;;;;5.46;72.80;100449.13;6301074;28;20436;-72
2021/10/16 05:05:13;;;;;;;1.20;1.20;;;;;;;5.56;72.16;100449.66;6284484;28;20512;-72
2021/10/16 05:08:19;;;;;;;4.33;1.30;;;;;;;5.51;72.92;100462.94;6285700;28;20203;-71
2021/10/16 05:11:24;;;;;;;4.53;1.10;;;;;;;5.49;73.22;100454.16;6285292;28;20206;-73
2021/10/16 05:14:30;;;;;;;1.00;1.00;;;;;;;5.48;72.67;100457.91;6288497;28;20202;-72
2021/10/16 05:17:34;;;;;;;1.00;1.00;;;;;;;5.40;72.58;100444.50;6289753;28;20494;-72
2021/10/16 05:20:42;;;;;;;1.03;1.03;;;;;;;5.46;73.98;100449.13;6289867;28;20339;-72
2021/10/16 05:23:47;;;;;;;3.70;1.30;;;;;;;5.43;73.91;100449.53;6288466;28;20245;-71
2021/10/16 05:26:51;;;;;;;4.53;1.30;;;;;;;5.34;74.04;100439.88;6289197;28;20298;-70
2021/10/16 05:29:57;;;;;;;1.20;1.20;;;;;;;5.47;72.57;100429.19;6289468;28;20200;-72
2021/10/16 05:33:01;;;;;;;1.60;1.20;;;;;;;5.40;73.23;100429.09;6288715;28;20269;-72
2021/10/16 05:36:06;;;;;;;1.37;1.27;;;;;;;5.47;72.65;100430.00;6305822;28;20202;-72
2021/10/16 05:39:10;;;;;;;1.10;1.10;;;;;;;5.55;71.76;100431.72;6290360;28;20190;-72
2021/10/16 05:42:18;;;;;;;1.17;1.17;;;;;;;5.46;73.22;100427.50;6288899;28;20267;-72
2021/10/16 05:45:28;;;;;;;1.30;1.30;;;;;;;5.42;73.59;100423.47;6288773;28;20203;-71
2021/10/16 05:48:35;;;;;;;1.10;1.10;;;;;;;5.38;74.15;100430.31;6305045;28;20201;-71
2021/10/16 05:51:39;;;;;;;1.10;1.10;;;;;;;5.40;74.24;100430.97;6288671;28;20212;-71
2021/10/16 05:54:44;;;;;;;1.20;1.20;;;;;;;5.40;74.95;100425.56;6288164;28;20233;-72
2021/10/16 05:57:48;;;;;;;2.30;1.43;;;;;;;5.37;74.91;100424.06;6288223;28;20210;-72
2021/10/16 06:00:54;;;;;;;2.17;1.43;;;;;;;5.44;74.36;100421.44;6288302;28;20552;-72
2021/10/16 06:04:01;;;;;;;2.77;1.30;;;;;;;5.45;74.44;100425.81;6288108;28;20239;-72
2021/10/16 06:07:06;;;;;;;1.10;1.10;;;;;;;5.55;73.70;100426.31;6305018;28;20202;-72
2021/10/16 06:10:13;;;;;;;1.10;1.10;;;;;;;5.66;73.02;100413.13;6287946;28;20203;-71
2021/10/16 06:13:19;;;;;;;1.60;1.50;;;;;;;5.55;74.23;100426.31;6304057;28;20521;-71
2021/10/16 06:16:26;;;;;;;1.27;1.27;;;;;;;5.57;74.10;100413.44;6287526;28;20203;-71
2021/10/16 06:19:31;;;;;;;1.63;1.53;;;;;;;5.73;73.15;100418.56;6287055;28;20234;-71
2021/10/16 06:22:36;;;;;;;1.33;1.33;;;;;;;5.79;73.05;100420.50;6287729;28;20300;-72
2021/10/16 06:25:41;;;;;;;1.00;1.00;;;;;;;5.68;74.59;100426.44;6303280;28;20537;-72
2021/10/16 06:28:45;;;;;;;2.20;1.50;;;;;;;5.86;72.80;100424.13;6288091;28;20207;-72
2021/10/16 06:31:51;;;;;;;1.20;1.20;;;;;;;5.89;72.78;100428.31;6304554;28;20203;-71
2021/10/16 06:34:55;;;;;;;2.00;2.00;;;;;;;5.89;73.64;100431.84;6304500;28;20205;-71
2021/10/16 06:37:59;;;;;;;1.50;1.50;;;;;;;5.91;72.96;100424.38;6287917;28;20231;-71
2021/10/16 06:41:04;;;;;;;4.00;1.57;;;;;;;5.95;73.09;100422.97;6287235;28;20494;-72
2021/10/16 06:44:25;;;;;;;1.53;1.53;;;;;;;5.82;74.59;100421.97;6287438;28;20230;-71
2021/10/16 06:47:44;;;;;;;1.43;1.43;;;;;;;5.90;73.85;100436.25;6304056;28;20280;-71
2021/10/16 06:51:07;;;;;;;1.30;1.30;;;;;;;6.14;72.46;100438.50;6289231;28;20208;-72
2021/10/16 06:54:13;;;;;;;1.57;1.17;;;;;;;6.15;72.54;100433.91;6287925;28;20207;-72
2021/10/16 06:57:21;;;;;;;5.90;1.40;;;;;;;6.09;73.48;100435.53;6303882;28;20238;-72
2021/10/16 07:00:25;;;;;;;1.33;1.33;;;;;;;6.00;75.67;100438.59;6288349;28;20209;-72
2021/10/16 07:03:33;;;;;;;1.57;1.30;;;;;;;6.07;73.79;100437.63;6286040;28;20306;-71
2021/10/16 07:06:38;;;;;;;2.30;1.50;;;;;;;6.14;74.23;100438.50;6302912;28;20238;-71
2021/10/16 07:09:47;;;;;;;1.87;1.70;;;;;;;6.07;75.38;100443.03;6302513;28;20211;-72
2021/10/16 07:12:52;;;;;;;1.70;1.60;;;;;;;5.95;76.05;100428.38;6288462;28;20191;-71
2021/10/16 07:15:57;;;;;;;1.17;1.17;;;;;;;6.11;74.73;100438.06;6288274;28;20191;-71
2021/10/16 07:19:03;;;;;;;2.07;1.70;;;;;;;6.16;74.82;100441.03;6286830;28;20250;-71
2021/10/16 07:22:07;;;;;;;1.30;1.20;;;;;;;6.34;74.58;100454.06;6287853;28;20194;-71
2021/10/16 07:25:12;;;;;;;1.10;1.10;;;;;;;6.41;74.58;100444.09;6287313;28;20255;-70
2021/10/16 07:28:16;;;;;;;1.10;1.10;;;;;;;6.49;73.84;100446.63;6286855;28;20474;-71
2021/10/16 07:31:24;;;;;;;1.33;1.20;;;;;;;6.50;74.74;100440.16;6287895;28;20194;-71
2021/10/16 07:34:31;;;;;;;4.10;1.93;;;;;;;6.58;74.15;100445.44;6286044;28;20502;-72
2021/10/16 07:37:35;;;;;;;2.10;1.17;;;;;;;6.62;74.18;100449.44;6285594;28;20454;-72
2021/10/16 07:40:41;;;;;;;6.23;1.50;;;;;;;6.58;73.71;100451.69;6287283;28;20185;-72
2021/10/16 07:43:46;;;;;;;1.17;1.17;;;;;;;6.76;72.62;100451.16;6287614;28;20208;-73
2021/10/16 07:46:50;;;;;;;1.00;1.00;;;;;;;6.82;72.82;100453.06;6286249;28;20480;-74
2021/10/16 07:49:56;;;;;;;1.73;1.40;;;;;;;6.87;71.84;100462.28;6286325;28;20184;-72
2021/10/16 07:53:03;;;;;;;2.87;1.20;;;;;;;6.96;71.88;100459.38;6287276;28;20226;-72
2021/10/16 07:56:07;;;;;;;1.10;1.10;;;;;;;7.04;72.17;100457.31;6286114;28;20370;-72
2021/10/16 07:59:11;;;;;;;1.07;1.07;;;;;;;6.96;72.75;100449.34;6287391;28;20194;-72
2021/10/16 08:02:16;;;;;;;1.90;1.50;;;;;;;7.06;71.76;100449.81;6292886;28;20233;-72
2021/10/16 08:05:21;;;;;;;4.37;1.30;;;;;;;7.13;71.09;100457.97;6310613;28;20222;-73
2021/10/16 08:08:27;;;;;;;1.20;1.20;;;;;;;7.17;71.22;100451.94;6294001;28;20516;-72
2021/10/16 08:11:34;;;;;;;1.97;1.23;;;;;;;7.26;71.04;100449.88;6310297;28;20274;-72
2021/10/16 08:14:38;;;;;;;1.30;1.13;;;;;;;7.26;71.07;100439.88;6312169;28;20191;-72
2021/10/16 08:17:42;;;;;;;1.33;1.30;;;;;;;7.27;70.33;100436.09;6310948;28;20371;-73
2021/10/16 08:20:48;;;;;;;2.17;1.10;;;;;;;7.27;70.45;100435.25;6312049;28;20247;-73
2021/10/16 08:23:52;;;;;;;1.10;1.10;;;;;;;7.31;69.68;100442.81;6312135;28;20286;-73
2021/10/16 08:26:56;;;;;;;1.17;1.13;;;;;;;7.38;69.63;100443.66;6312227;28;20288;-73
2021/10/16 08:30:00;;;;;;;1.33;1.10;;;;;;;7.43;69.76;100446.59;6311931;28;20297;-72
2021/10/16 08:33:07;;;;;;;0.90;0.90;;;;;;;7.45;69.92;100439.06;6310682;28;20408;-72
2021/10/16 08:36:13;;;;;;;3.47;1.33;;;;;;;7.50;70.08;100442.00;6311704;28;20183;-73
2021/10/16 08:39:22;;;;;;;1.03;0.93;;;;;;;7.54;69.88;100435.13;6311913;28;20198;-72
2021/10/16 08:42:27;;;;;;;7.73;1.10;;;;;;;7.48;69.05;100433.22;6311553;28;20183;-72
2021/10/16 08:45:32;;;;;;;3.30;1.30;;;;;;;7.56;68.85;100429.47;6310499;28;20521;-72
2021/10/16 08:48:39;;;;;;;1.17;1.17;;;;;;;7.60;68.62;100440.75;6313478;28;20222;-72
2021/10/16 08:51:45;;;;;;;5.80;1.30;;;;;;;7.72;67.69;100439.94;6315247;28;20184;-73
2021/10/16 08:54:49;;;;;;;3.90;1.02;;;;;;;7.74;68.01;100437.84;6316429;28;20241;-72
2021/10/16 08:57:53;;;;;;;1.58;1.00;;;;;;;7.78;68.50;100439.09;6316946;28;20274;-72
2021/10/16 09:00:58;;;;;;;2.23;1.20;;;;;;;7.77;67.86;100447.47;6315441;28;20461;-72
2021/10/16 09:04:02;;;;;;;0.90;0.90;;;;;;;7.84;68.00;100434.69;6316232;28;20435;-71
2021/10/16 09:07:23;;;;;;;1.25;1.25;;;;;;;7.87;67.67;100431.56;6315229;28;20451;-71
2021/10/16 09:10:27;;;;;;;1.53;1.43;;;;;;;7.88;67.14;100435.97;6316090;28;20219;-71
2021/10/16 09:13:43;;;;;;;1.50;1.10;;;;;;;7.97;66.83;100432.00;6314808;28;20183;-71
2021/10/16 09:16:48;;;;;;;2.28;1.52;;;;;;;7.97;66.43;100432.81;6314681;28;20379;-72
2021/10/16 09:19:53;;;;;;;1.03;1.03;;;;;;;7.99;65.89;100451.63;6314572;28;20467;-72
2021/10/16 09:23:05;;;;;;;1.00;1.00;;;;;;;8.04;65.44;100443.69;6315704;28;20183;-71
2021/10/16 09:26:10;;;;;;;1.15;1.00;;;;;;;8.10;65.67;100437.41;6314420;28;20280;-72
2021/10/16 09:29:16;;;;;;;1.40;1.10;;;;;;;8.11;66.45;100423.59;6315817;28;20191;-71
2021/10/16 09:32:23;;;;;;;1.00;1.00;;;;;;;8.09;67.04;100435.72;6315288;28;20276;-72
2021/10/16 09:35:35;;;;;;;1.27;1.13;;;;;;;8.24;65.93;100433.66;6314155;28;20381;-71
2021/10/16 09:38:44;;;;;;;1.80;1.10;;;;;;;8.20;64.67;100426.94;6315173;28;20183;-73
2021/10/16 09:41:49;;;;;;;2.42;1.30;;;;;;;8.28;64.41;100434.91;6315449;28;20184;-72
2021/10/16 09:44:57;;;;;;;4.22;1.10;;;;;;;8.34;64.42;100428.66;6315232;28;20246;-72
2021/10/16 09:48:02;;;;;;;1.00;1.00;;;;;;;8.42;64.63;100442.00;6315596;28;20200;-72
2021/10/16 09:51:07;;;;;;;1.08;1.00;;;;;;;8.34;63.49;100428.66;6314346;28;20247;-73
2021/10/16 09:54:17;;;;;;;1.95;1.10;;;;;;;8.45;63.51;100441.56;6313947;28;20246;-73
2021/10/16 09:57:21;;;;;;;2.00;1.00;;;;;;;8.42;64.07;100428.41;6314192;28;20196;-73
2021/10/16 10:00:25;;;;;;;0.90;0.90;;;;;;;8.46;63.71;100432.38;6313716;28;20252;-73
2021/10/16 10:03:33;;;;;;;1.83;1.25;;;;;;;8.61;63.41;100435.66;6313901;28;20288;-71
2021/10/16 10:06:38;;;;;;;1.15;1.10;;;;;;;8.67;63.51;100445.72;6313593;28;20208;-72
2021/10/16 10:09:45;;;;;;;1.10;1.00;;;;;;;8.61;63.17;100435.66;6313490;28;20381;-73
2021/10/16 10:12:50;;;;;;;1.00;1.00;;;;;;;8.71;62.47;100436.06;6314242;28;20191;-72
2021/10/16 10:15:55;;;;;;;0.90;0.90;;;;;;;8.78;63.47;100431.41;6314018;28;20218;-72
2021/10/16 10:19:01;;;;;;;1.77;1.30;;;;;;;8.79;62.38;100433.09;6313633;28;20190;-73
2021/10/16 10:22:13;;;;;;;1.27;1.08;;;;;;;8.82;61.20;100426.41;6313688;28;20183;-72
2021/10/16 10:25:25;;;;;;;2.58;1.25;;;;;;;8.96;61.48;100432.63;6314143;28;20218;-72
2021/10/16 10:28:54;;;;;;;2.72;1.20;;;;;;;8.96;60.81;100433.44;6312941;28;20191;-71
2021/10/16 10:32:16;;;;;;;1.52;0.90;;;;;;;9.08;60.69;100441.75;6313913;28;20184;-72
2021/10/16 10:35:21;;;;;;;0.93;0.93;;;;;;;9.09;60.59;100430.66;6314397;28;20203;-72
2021/10/16 10:38:30;;;;;;;1.27;1.10;;;;;;;9.25;60.53;100434.75;6312887;28;20380;-71
2021/10/16 10:41:36;;;;;;;2.40;1.30;;;;;;;9.18;61.21;100447.56;6313457;28;20188;-72
2021/10/16 10:44:41;;;;;;;1.02;1.02;;;;;;;9.27;60.81;100443.56;6313582;28;20207;-72
2021/10/16 10:47:56;;;;;;;1.48;1.38;;;;;;;9.29;61.21;100446.91;6313512;28;20292;-72
2021/10/16 10:51:01;;;;;;;1.80;1.38;;;;;;;9.36;61.72;100434.06;6313663;28;20221;-71
2021/10/16 10:54:17;;;;;;;1.00;1.00;;;;;;;9.44;61.27;100447.44;6313717;28;20237;-71
2021/10/16 10:57:53;;;;;;;1.10;1.10;;;;;;;9.50;61.39;100446.53;6313370;28;20251;-71
2021/10/16 11:00:58;;;;;;;2.17;1.02;;;;;;;9.46;61.79;100428.97;6312770;28;20279;-71
2021/10/16 11:04:03;;;;;;;2.20;1.30;;;;;;;9.50;61.63;100438.38;6312847;28;20352;-71
2021/10/16 11:07:11;;;;;;;1.20;1.13;;;;;;;9.54;59.89;100436.91;6313199;28;20207;-71
2021/10/16 11:10:17;;;;;;;3.25;1.30;;;;;;;9.60;60.81;100436.03;6311728;28;20358;-72
2021/10/16 11:13:22;;;;;;;6.38;0.93;;;;;;;9.72;60.82;100438.84;6312536;28;20247;-72
2021/10/16 11:16:26;;;;;;;1.88;1.10;;;;;;;9.67;60.55;100435.97;6311694;28;20420;-72
2021/10/16 11:19:30;;;;;;;1.65;1.08;;;;;;;9.67;60.02;100431.34;6313081;28;20249;-72
2021/10/16 11:22:48;;;;;;;0.90;0.90;;;;;;;9.70;59.85;100422.75;6312309;28;20184;-72
2021/10/16 11:25:58;;;;;;;0.85;0.85;;;;;;;9.76;58.81;100430.00;6311342;28;20237;-71
2021/10/16 11:29:03;;;;;;;0.88;0.88;;;;;;;9.85;57.59;100423.25;6311999;28;20191;-71
2021/10/16 11:32:15;;;;;;;0.98;0.98;;;;;;;9.77;57.54;100426.25;6311600;28;20379;-72
2021/10/16 11:35:22;;;;;;;0.80;0.80;;;;;;;9.84;56.35;100427.03;6313015;28;20223;-71
2021/10/16 11:38:30;;;;;;;2.28;1.10;;;;;;;9.83;57.80;100419.91;6311476;28;20354;-73
2021/10/16 11:41:34;;;;;;;1.45;1.10;;;;;;;9.88;56.11;100428.25;6312661;28;20184;-72
2021/10/16 11:44:40;;;;;;;2.53;0.95;;;;;;;9.97;56.24;100421.47;6312912;28;20183;-71
2021/10/16 11:47:48;;;;;;;1.23;1.00;;;;;;;9.94;56.76;100413.72;6312350;28;20317;-71
2021/10/16 11:50:54;;;;;;;1.35;1.00;;;;;;;9.91;56.61;100416.91;6311511;28;20281;-72
2021/10/16 11:53:59;;;;;;;0.90;0.90;;;;;;;9.95;56.77;100412.69;6293757;28;20392;-73
2021/10/16 11:57:03;;;;;;;4.45;1.38;;;;;;;9.99;56.01;100402.16;6311438;28;20188;-72
2021/10/16 12:00:18;;;;;;;0.90;0.90;;;;;;;10.13;55.03;100408.34;6311474;28;20381;-72
2021/10/16 12:03:29;;;;;;;1.17;1.08;;;;;;;10.14;55.41;100399.97;6312094;28;20231;-72
2021/10/16 12:06:34;;;;;;;1.02;1.02;;;;;;;10.17;55.49;100404.13;6311453;28;20211;-72
2021/10/16 12:09:38;;;;;;;2.00;1.13;;;;;;;10.15;55.25;100406.22;6312241;28;20184;-72
2021/10/16 12:12:55;;;;;;;1.13;1.13;;;;;;;10.21;55.71;100402.63;6311928;28;20183;-72
2021/10/16 12:16:10;;;;;;;3.03;1.13;;;;;;;10.28;54.78;100384.28;6311862;28;20188;-72
2021/10/16 12:19:16;;;;;;;0.90;0.90;;;;;;;10.22;55.91;100379.75;6312181;28;20215;-72
2021/10/16 12:22:21;;;;;;;1.20;1.10;;;;;;;10.29;54.91;100380.50;6311281;28;20203;-72
2021/10/16 12:25:25;;;;;;;0.93;0.93;;;;;;;10.28;54.73;100378.84;6317048;28;20263;-72
2021/10/16 12:28:41;;;;;;;1.40;0.90;;;;;;;10.28;55.31;100385.13;6315897;28;20382;-73
2021/10/16 12:31:48;;;;;;;3.13;1.33;;;;;;;10.38;53.91;100379.16;6315852;28;20552;-73
2021/10/16 12:34:54;;;;;;;1.00;1.00;;;;;;;10.44;54.15;100383.69;6316916;28;20250;-72
2021/10/16 12:37:59;;;;;;;1.10;1.10;;;;;;;10.53;54.60;100390.50;6317102;28;20187;-72
2021/10/16 12:41:03;;;;;;;1.30;1.00;;;;;;;10.58;53.34;100385.19;6315966;28;20191;-73
2021/10/16 12:44:21;;;;;;;0.95;0.93;;;;;;;10.50;53.92;100382.81;6316843;28;20194;-72
2021/10/16 12:47:29;;;;;;;0.93;0.93;;;;;;;10.51;54.41;100384.44;6316935;28;20234;-72
2021/10/16 12:50:49;;;;;;;3.40;1.10;;;;;;;10.50;54.83;100382.81;6315418;28;20183;-72
2021/10/16 12:53:54;;;;;;;1.65;0.90;;;;;;;10.48;55.13;100382.19;6316628;28;20222;-73
2021/10/16 12:57:05;;;;;;;0.98;0.98;;;;;;;10.53;55.31;100385.06;6315380;28;20376;-73
2021/10/16 13:00:11;;;;;;;1.20;1.20;;;;;;;10.52;56.05;100381.50;6315539;28;20231;-73
2021/10/16 13:03:18;;;;;;;1.25;1.20;;;;;;;10.54;56.40;100378.53;6315865;28;20401;-73
2021/10/16 13:06:27;;;;;;;1.17;1.17;;;;;;;10.56;56.43;100381.88;6315655;28;20211;-73
2021/10/16 13:09:32;;;;;;;0.93;0.93;;;;;;;10.62;57.47;100375.53;6316361;28;20215;-72
2021/10/16 13:12:36;;;;;;;0.90;0.90;;;;;;;10.69;56.23;100366.19;6314913;28;20187;-72
2021/10/16 13:15:40;;;;;;;3.80;3.53;;;;;;;10.70;57.04;100383.41;6316168;28;20254;-72
2021/10/16 13:18:46;;;;;;;7.65;5.57;;;;;;;10.74;56.43;100390.03;6316140;28;20222;-72
2021/10/16 13:21:50;;;;;;;2.00;1.90;;;;;;;10.90;57.45;100383.97;6316090;28;20266;-73
2021/10/16 13:24:54;;;;;;;1.35;1.35;;;;;;;10.85;56.99;100386.56;6315073;28;20352;-73
2021/10/16 13:27:58;;;;;;;1.33;1.33;;;;;;;10.87;57.22;100372.66;6315541;28;20270;-73
2021/10/16 13:31:03;;;;;;;1.75;1.30;;;;;;;10.87;57.13;100370.78;6314794;28;20414;-73
2021/10/16 13:34:09;;;;;;;3.70;1.25;;;;;;;10.87;57.77;100368.06;6316056;28;20245;-73
2021/10/16 13:37:13;;;;;;;1.05;0.98;;;;;;;10.97;56.73;100373.78;6314459;28;20187;-72
2021/10/16 13:40:18;;;;;;;1.75;1.13;;;;;;;11.00;56.29;100378.78;6314285;28;20246;-72
2021/10/16 13:43:22;;;;;;;44.67;23.45;;;;;;;10.84;56.87;100384.88;6314607;28;20184;-72
2021/10/16 13:46:26;;;;;;;84.20;43.20;;;;;;;10.95;56.24;100381.38;6316034;28;20218;-73
2021/10/16 13:49:31;;;;;;;12.30;7.82;;;;;;;11.04;55.66;100379.19;6316386;28;20258;-72
2021/10/16 13:52:38;;;;;;;1.85;0.90;;;;;;;10.91;54.93;100391.13;6315633;28;20190;-73
2021/10/16 13:55:42;;;;;;;2.97;0.80;;;;;;;10.89;55.98;100387.75;6315326;28;20215;-73
2021/10/16 13:58:47;;;;;;;1.45;0.82;;;;;;;10.97;54.79;100395.63;6314141;28;20477;-73
2021/10/16 14:01:51;;;;;;;1.50;1.00;;;;;;;11.07;54.33;100395.91;6314462;28;20438;-73
2021/10/16 14:04:56;;;;;;;0.70;0.70;;;;;;;10.99;53.91;100388.03;6314454;28;20190;-73
2021/10/16 14:08:01;;;;;;;53.05;29.13;;;;;;;10.96;54.40;100404.91;6314571;28;20219;-73
2021/10/16 14:11:05;;;;;;;17.77;12.25;;;;;;;10.94;55.18;100393.34;6313634;28;20183;-73
2021/10/16 14:14:11;;;;;;;1.77;1.23;;;;;;;10.95;54.26;100394.19;6313592;28;20184;-72
2021/10/16 14:17:15;;;;;;;2.80;0.90;;;;;;;10.89;53.83;100398.66;6313530;28;20218;-72
2021/10/16 14:20:21;;;;;;;0.80;0.80;;;;;;;10.88;53.30;100401.63;6313779;28;20188;-71
2021/10/16 14:23:25;;;;;;;1.08;0.90;;;;;;;10.87;53.58;100400.81;6314577;28;20215;-73
2021/10/16 14:26:35;;;;;;;0.90;0.90;;;;;;;10.87;55.12;100403.53;6314496;28;20184;-73
2021/10/16 14:29:39;;;;;;;0.80;0.80;;;;;;;10.85;54.47;100407.56;6314267;28;20199;-72
2021/10/16 14:32:43;;;;;;;25.50;14.65;;;;;;;10.82;55.07;100392.47;6314530;28;20214;-72
2021/10/16 14:35:49;;;;;;;2.10;1.95;;;;;;;10.83;54.33;100399.59;6314647;28;20290;-73